sensor_id;sensor_type;location;lat;lon;timestamp;temperature;humidity
4386;DHT22;2207;53.540;10.042;2023-05-10T00:02:17;14.20;45.20
4386;DHT22;2207;53.540;10.042;2023-05-10T00:04:44;14.20;45.20
4386;DHT22;2207;53.540;10.042;2023-05-10T00:07:12;14.20;45.30
4386;DHT22;2207;53.540;10.042;2023-05-10T00:09:39;14.20;45.40
4386;DHT22;2207;53.540;10.042;2023-05-10T00:12:05;14.10;45.50
4386;DHT22;2207;53.540;10.042;2023-05-10T00:14:32;14.10;45.60
4386;DHT22;2207;53.540;10.042;2023-05-10T00:16:59;14.00;46.00
4386;DHT22;2207;53.540;10.042;2023-05-10T00:19:25;14.00;46.10
4386;DHT22;2207;53.540;10.042;2023-05-10T00:21:52;14.00;46.10
4386;DHT22;2207;53.540;10.042;2023-05-10T00:24:20;13.90;46.00
4386;DHT22;2207;53.540;10.042;2023-05-10T00:26:47;13.90;46.10
4386;DHT22;2207;53.540;10.042;2023-05-10T00:29:14;13.80;46.40
4386;DHT22;2207;53.540;10.042;2023-05-10T00:31:40;13.80;46.40
4386;DHT22;2207;53.540;10.042;2023-05-10T00:34:07;13.80;46.70
4386;DHT22;2207;53.540;10.042;2023-05-10T00:36:34;13.80;46.90
4386;DHT22;2207;53.540;10.042;2023-05-10T00:39:00;13.70;46.80
4386;DHT22;2207;53.540;10.042;2023-05-10T00:41:30;13.70;47.00
4386;DHT22;2207;53.540;10.042;2023-05-10T00:43:58;13.70;47.10
4386;DHT22;2207;53.540;10.042;2023-05-10T00:46:25;13.70;47.30
4386;DHT22;2207;53.540;10.042;2023-05-10T00:48:52;13.70;47.40
4386;DHT22;2207;53.540;10.042;2023-05-10T00:51:19;13.60;47.30
4386;DHT22;2207;53.540;10.042;2023-05-10T00:53:46;13.60;47.40
4386;DHT22;2207;53.540;10.042;2023-05-10T00:56:13;13.60;47.60
4386;DHT22;2207;53.540;10.042;2023-05-10T00:58:41;13.60;47.70
4386;DHT22;2207;53.540;10.042;2023-05-10T01:01:08;13.50;47.60
4386;DHT22;2207;53.540;10.042;2023-05-10T01:03:36;13.50;47.80
4386;DHT22;2207;53.540;10.042;2023-05-10T01:06:03;13.50;47.90
4386;DHT22;2207;53.540;10.042;2023-05-10T01:08:30;13.40;47.90
4386;DHT22;2207;53.540;10.042;2023-05-10T01:10:57;13.40;48.00
4386;DHT22;2207;53.540;10.042;2023-05-10T01:13:31;13.40;48.10
4386;DHT22;2207;53.540;10.042;2023-05-10T01:16:00;13.40;48.20
4386;DHT22;2207;53.540;10.042;2023-05-10T01:18:29;13.30;48.20
4386;DHT22;2207;53.540;10.042;2023-05-10T01:21:07;13.30;48.40
4386;DHT22;2207;53.540;10.042;2023-05-10T01:26:58;13.20;48.60
4386;DHT22;2207;53.540;10.042;2023-05-10T01:29:57;13.20;48.70
4386;DHT22;2207;53.540;10.042;2023-05-10T01:32:34;13.10;48.80
4386;DHT22;2207;53.540;10.042;2023-05-10T01:35:04;13.10;49.00
4386;DHT22;2207;53.540;10.042;2023-05-10T01:37:40;13.10;49.20
4386;DHT22;2207;53.540;10.042;2023-05-10T01:40:14;13.00;49.30
4386;DHT22;2207;53.540;10.042;2023-05-10T01:42:49;13.00;49.30
4386;DHT22;2207;53.540;10.042;2023-05-10T01:45:22;12.90;49.30
4386;DHT22;2207;53.540;10.042;2023-05-10T01:47:58;12.90;49.60
4386;DHT22;2207;53.540;10.042;2023-05-10T01:50:30;12.90;49.70
4386;DHT22;2207;53.540;10.042;2023-05-10T01:52:59;12.90;49.70
4386;DHT22;2207;53.540;10.042;2023-05-10T01:55:29;12.80;49.70
4386;DHT22;2207;53.540;10.042;2023-05-10T01:58:02;12.80;49.90
4386;DHT22;2207;53.540;10.042;2023-05-10T02:00:29;12.80;50.00
4386;DHT22;2207;53.540;10.042;2023-05-10T02:03:00;12.80;50.10
4386;DHT22;2207;53.540;10.042;2023-05-10T02:05:29;12.80;50.10
4386;DHT22;2207;53.540;10.042;2023-05-10T02:07:57;12.70;50.20
4386;DHT22;2207;53.540;10.042;2023-05-10T02:10:26;12.70;50.30
4386;DHT22;2207;53.540;10.042;2023-05-10T02:12:53;12.70;50.50
4386;DHT22;2207;53.540;10.042;2023-05-10T02:15:23;12.70;50.60
4386;DHT22;2207;53.540;10.042;2023-05-10T02:17:52;12.60;50.50
4386;DHT22;2207;53.540;10.042;2023-05-10T02:20:22;12.60;50.50
4386;DHT22;2207;53.540;10.042;2023-05-10T02:22:51;12.60;50.70
4386;DHT22;2207;53.540;10.042;2023-05-10T02:25:19;12.50;50.70
4386;DHT22;2207;53.540;10.042;2023-05-10T02:27:48;12.50;50.90
4386;DHT22;2207;53.540;10.042;2023-05-10T02:30:15;12.50;51.00
4386;DHT22;2207;53.540;10.042;2023-05-10T02:32:43;12.50;51.00
4386;DHT22;2207;53.540;10.042;2023-05-10T02:35:11;12.40;51.10
4386;DHT22;2207;53.540;10.042;2023-05-10T02:37:39;12.40;51.20
4386;DHT22;2207;53.540;10.042;2023-05-10T02:40:07;12.40;51.20
4386;DHT22;2207;53.540;10.042;2023-05-10T02:42:37;12.30;51.30
4386;DHT22;2207;53.540;10.042;2023-05-10T02:45:08;12.30;51.60
4386;DHT22;2207;53.540;10.042;2023-05-10T02:47:36;12.30;51.60
4386;DHT22;2207;53.540;10.042;2023-05-10T02:50:03;12.30;51.60
4386;DHT22;2207;53.540;10.042;2023-05-10T02:52:42;12.30;51.60
4386;DHT22;2207;53.540;10.042;2023-05-10T02:55:12;12.20;51.50
4386;DHT22;2207;53.540;10.042;2023-05-10T02:57:45;12.20;51.70
4386;DHT22;2207;53.540;10.042;2023-05-10T03:00:14;12.20;52.00
4386;DHT22;2207;53.540;10.042;2023-05-10T03:02:41;12.10;52.00
4386;DHT22;2207;53.540;10.042;2023-05-10T03:05:08;12.10;52.00
4386;DHT22;2207;53.540;10.042;2023-05-10T03:07:35;12.10;52.10
4386;DHT22;2207;53.540;10.042;2023-05-10T03:10:05;12.10;52.20
4386;DHT22;2207;53.540;10.042;2023-05-10T03:12:41;12.10;52.30
4386;DHT22;2207;53.540;10.042;2023-05-10T03:15:17;12.10;52.30
4386;DHT22;2207;53.540;10.042;2023-05-10T03:17:49;12.10;52.30
4386;DHT22;2207;53.540;10.042;2023-05-10T03:20:22;12.20;52.40
4386;DHT22;2207;53.540;10.042;2023-05-10T03:22:55;12.20;52.30
4386;DHT22;2207;53.540;10.042;2023-05-10T03:25:24;12.20;52.30
4386;DHT22;2207;53.540;10.042;2023-05-10T03:27:52;12.20;52.30
4386;DHT22;2207;53.540;10.042;2023-05-10T03:30:19;12.30;52.30
4386;DHT22;2207;53.540;10.042;2023-05-10T03:32:46;12.30;52.20
4386;DHT22;2207;53.540;10.042;2023-05-10T03:35:13;12.30;52.10
4386;DHT22;2207;53.540;10.042;2023-05-10T03:37:39;12.30;52.10
4386;DHT22;2207;53.540;10.042;2023-05-10T03:40:07;12.30;52.20
4386;DHT22;2207;53.540;10.042;2023-05-10T03:42:36;12.30;52.20
4386;DHT22;2207;53.540;10.042;2023-05-10T03:45:03;12.30;52.30
4386;DHT22;2207;53.540;10.042;2023-05-10T03:47:30;12.30;52.30
4386;DHT22;2207;53.540;10.042;2023-05-10T03:49:57;12.30;52.30
4386;DHT22;2207;53.540;10.042;2023-05-10T03:52:23;12.30;52.20
4386;DHT22;2207;53.540;10.042;2023-05-10T03:54:50;12.30;52.20
4386;DHT22;2207;53.540;10.042;2023-05-10T03:57:17;12.30;52.30
4386;DHT22;2207;53.540;10.042;2023-05-10T03:59:45;12.40;52.30
4386;DHT22;2207;53.540;10.042;2023-05-10T04:02:12;12.40;52.30
4386;DHT22;2207;53.540;10.042;2023-05-10T04:04:38;12.40;52.30
4386;DHT22;2207;53.540;10.042;2023-05-10T04:07:05;12.50;52.20
4386;DHT22;2207;53.540;10.042;2023-05-10T04:09:32;12.50;52.10
4386;DHT22;2207;53.540;10.042;2023-05-10T04:11:59;12.50;52.00
4386;DHT22;2207;53.540;10.042;2023-05-10T04:14:27;12.60;52.00
4386;DHT22;2207;53.540;10.042;2023-05-10T04:16:55;12.60;51.90
4386;DHT22;2207;53.540;10.042;2023-05-10T04:19:22;12.60;51.80
4386;DHT22;2207;53.540;10.042;2023-05-10T04:21:49;12.70;52.50
4386;DHT22;2207;53.540;10.042;2023-05-10T04:24:16;12.70;52.00
4386;DHT22;2207;53.540;10.042;2023-05-10T04:26:42;12.80;52.00
4386;DHT22;2207;53.540;10.042;2023-05-10T04:29:09;12.80;51.90
4386;DHT22;2207;53.540;10.042;2023-05-10T04:31:36;12.90;51.80
4386;DHT22;2207;53.540;10.042;2023-05-10T04:34:04;12.90;52.30
4386;DHT22;2207;53.540;10.042;2023-05-10T04:38:58;13.00;52.00
4386;DHT22;2207;53.540;10.042;2023-05-10T04:41:25;13.10;51.40
4386;DHT22;2207;53.540;10.042;2023-05-10T04:43:51;13.10;51.30
4386;DHT22;2207;53.540;10.042;2023-05-10T04:46:18;13.20;51.30
4386;DHT22;2207;53.540;10.042;2023-05-10T04:48:45;13.30;51.10
4386;DHT22;2207;53.540;10.042;2023-05-10T04:51:13;13.30;50.90
4386;DHT22;2207;53.540;10.042;2023-05-10T04:53:40;13.50;51.00
4386;DHT22;2207;53.540;10.042;2023-05-10T04:56:07;13.60;50.80
4386;DHT22;2207;53.540;10.042;2023-05-10T04:58:34;13.80;50.50
4386;DHT22;2207;53.540;10.042;2023-05-10T05:01:05;13.90;50.10
4386;DHT22;2207;53.540;10.042;2023-05-10T05:03:32;14.00;49.90
4386;DHT22;2207;53.540;10.042;2023-05-10T05:05:59;14.20;49.60
4386;DHT22;2207;53.540;10.042;2023-05-10T05:08:27;14.30;49.50
4386;DHT22;2207;53.540;10.042;2023-05-10T05:10:56;14.50;49.40
4386;DHT22;2207;53.540;10.042;2023-05-10T05:13:23;14.70;49.00
4386;DHT22;2207;53.540;10.042;2023-05-10T05:15:49;14.90;48.60
4386;DHT22;2207;53.540;10.042;2023-05-10T05:18:16;15.20;48.10
4386;DHT22;2207;53.540;10.042;2023-05-10T05:20:43;15.40;47.70
4386;DHT22;2207;53.540;10.042;2023-05-10T05:23:09;15.60;47.50
4386;DHT22;2207;53.540;10.042;2023-05-10T05:25:37;15.80;46.90
4386;DHT22;2207;53.540;10.042;2023-05-10T05:28:04;16.00;46.70
4386;DHT22;2207;53.540;10.042;2023-05-10T05:30:31;16.50;46.60
4386;DHT22;2207;53.540;10.042;2023-05-10T05:32:57;17.60;46.00
4386;DHT22;2207;53.540;10.042;2023-05-10T05:35:24;19.50;43.30
4386;DHT22;2207;53.540;10.042;2023-05-10T05:37:51;21.10;40.70
4386;DHT22;2207;53.540;10.042;2023-05-10T05:40:18;22.30;38.70
4386;DHT22;2207;53.540;10.042;2023-05-10T05:42:47;23.10;37.40
4386;DHT22;2207;53.540;10.042;2023-05-10T05:45:13;23.90;35.90
4386;DHT22;2207;53.540;10.042;2023-05-10T05:47:40;25.00;34.50
4386;DHT22;2207;53.540;10.042;2023-05-10T05:50:08;25.80;32.80
4386;DHT22;2207;53.540;10.042;2023-05-10T05:52:35;26.30;31.80
4386;DHT22;2207;53.540;10.042;2023-05-10T05:55:01;27.10;30.90
4386;DHT22;2207;53.540;10.042;2023-05-10T05:57:29;28.10;30.20
4386;DHT22;2207;53.540;10.042;2023-05-10T05:59:57;29.20;28.60
4386;DHT22;2207;53.540;10.042;2023-05-10T06:02:23;29.60;27.60
4386;DHT22;2207;53.540;10.042;2023-05-10T06:04:50;28.80;26.90
4386;DHT22;2207;53.540;10.042;2023-05-10T06:07:17;28.10;28.20
4386;DHT22;2207;53.540;10.042;2023-05-10T06:09:43;27.90;28.00
4386;DHT22;2207;53.540;10.042;2023-05-10T06:12:10;28.00;28.10
4386;DHT22;2207;53.540;10.042;2023-05-10T06:14:38;28.40;27.80
4386;DHT22;2207;53.540;10.042;2023-05-10T06:17:06;28.30;27.50
4386;DHT22;2207;53.540;10.042;2023-05-10T06:19:32;27.90;27.80
4386;DHT22;2207;53.540;10.042;2023-05-10T06:21:59;28.20;27.90
4386;DHT22;2207;53.540;10.042;2023-05-10T06:24:26;28.10;27.20
4386;DHT22;2207;53.540;10.042;2023-05-10T06:26:53;27.20;27.80
4386;DHT22;2207;53.540;10.042;2023-05-10T06:29:20;26.20;28.60
4386;DHT22;2207;53.540;10.042;2023-05-10T06:31:47;25.30;29.30
4386;DHT22;2207;53.540;10.042;2023-05-10T06:34:15;24.50;30.30
4386;DHT22;2207;53.540;10.042;2023-05-10T06:36:42;24.80;30.30
4386;DHT22;2207;53.540;10.042;2023-05-10T06:39:08;25.30;29.90
4386;DHT22;2207;53.540;10.042;2023-05-10T06:44:10;26.20;28.80
4386;DHT22;2207;53.540;10.042;2023-05-10T06:46:38;25.30;29.80
4386;DHT22;2207;53.540;10.042;2023-05-10T06:49:04;24.20;30.60
4386;DHT22;2207;53.540;10.042;2023-05-10T06:51:32;23.40;31.90
4386;DHT22;2207;53.540;10.042;2023-05-10T06:53:59;24.00;31.90
4386;DHT22;2207;53.540;10.042;2023-05-10T06:56:26;25.00;30.80
4386;DHT22;2207;53.540;10.042;2023-05-10T06:58:53;25.60;30.00
4386;DHT22;2207;53.540;10.042;2023-05-10T07:01:19;25.50;29.80
4386;DHT22;2207;53.540;10.042;2023-05-10T07:03:46;24.70;30.80
4386;DHT22;2207;53.540;10.042;2023-05-10T07:06:13;24.70;31.20
4386;DHT22;2207;53.540;10.042;2023-05-10T07:08:41;26.30;30.00
4386;DHT22;2207;53.540;10.042;2023-05-10T07:11:07;28.30;28.20
4386;DHT22;2207;53.540;10.042;2023-05-10T07:13:35;29.30;27.30
4386;DHT22;2207;53.540;10.042;2023-05-10T07:16:04;29.00;27.20
4386;DHT22;2207;53.540;10.042;2023-05-10T07:18:31;28.00;27.90
4386;DHT22;2207;53.540;10.042;2023-05-10T07:20:58;27.00;28.90
4386;DHT22;2207;53.540;10.042;2023-05-10T07:23:25;26.30;29.70
4386;DHT22;2207;53.540;10.042;2023-05-10T07:25:53;26.20;29.90
4386;DHT22;2207;53.540;10.042;2023-05-10T07:28:20;26.80;29.60
4386;DHT22;2207;53.540;10.042;2023-05-10T07:30:47;27.70;28.70
4386;DHT22;2207;53.540;10.042;2023-05-10T07:33:14;27.90;28.30
4386;DHT22;2207;53.540;10.042;2023-05-10T07:35:42;27.60;28.50
4386;DHT22;2207;53.540;10.042;2023-05-10T07:38:09;27.40;28.80
4386;DHT22;2207;53.540;10.042;2023-05-10T07:40:36;27.10;29.00
4386;DHT22;2207;53.540;10.042;2023-05-10T07:43:05;26.70;29.30
4386;DHT22;2207;53.540;10.042;2023-05-10T07:45:33;26.20;29.80
4386;DHT22;2207;53.540;10.042;2023-05-10T07:48:00;25.80;30.00
4386;DHT22;2207;53.540;10.042;2023-05-10T07:50:27;25.30;30.30
4386;DHT22;2207;53.540;10.042;2023-05-10T07:52:54;24.70;31.10
4386;DHT22;2207;53.540;10.042;2023-05-10T07:55:20;24.10;31.70
4386;DHT22;2207;53.540;10.042;2023-05-10T07:57:47;23.90;32.10
4386;DHT22;2207;53.540;10.042;2023-05-10T08:00:22;23.90;32.30
4386;DHT22;2207;53.540;10.042;2023-05-10T08:02:48;24.10;32.10
4386;DHT22;2207;53.540;10.042;2023-05-10T08:05:15;24.20;31.90
4386;DHT22;2207;53.540;10.042;2023-05-10T08:07:42;24.10;32.00
4386;DHT22;2207;53.540;10.042;2023-05-10T08:10:10;23.70;32.10
4386;DHT22;2207;53.540;10.042;2023-05-10T08:12:37;23.20;32.80
4386;DHT22;2207;53.540;10.042;2023-05-10T08:15:05;22.70;33.50
4386;DHT22;2207;53.540;10.042;2023-05-10T08:17:34;22.20;34.30
4386;DHT22;2207;53.540;10.042;2023-05-10T08:20:00;21.80;34.90
4386;DHT22;2207;53.540;10.042;2023-05-10T08:22:27;21.50;35.30
4386;DHT22;2207;53.540;10.042;2023-05-10T08:24:54;21.60;35.60
4386;DHT22;2207;53.540;10.042;2023-05-10T08:27:21;21.60;35.70
4386;DHT22;2207;53.540;10.042;2023-05-10T08:29:50;21.70;35.70
4386;DHT22;2207;53.540;10.042;2023-05-10T08:32:16;21.80;35.70
4386;DHT22;2207;53.540;10.042;2023-05-10T08:34:44;22.00;35.70
4386;DHT22;2207;53.540;10.042;2023-05-10T08:37:11;22.30;35.30
4386;DHT22;2207;53.540;10.042;2023-05-10T08:39:38;22.40;35.40
4386;DHT22;2207;53.540;10.042;2023-05-10T08:42:06;22.50;35.50
4386;DHT22;2207;53.540;10.042;2023-05-10T08:44:35;22.50;35.50
4386;DHT22;2207;53.540;10.042;2023-05-10T08:47:16;22.50;35.50
4386;DHT22;2207;53.540;10.042;2023-05-10T08:49:47;22.40;35.40
4386;DHT22;2207;53.540;10.042;2023-05-10T08:52:15;22.30;35.90
4386;DHT22;2207;53.540;10.042;2023-05-10T08:54:42;22.20;35.90
4386;DHT22;2207;53.540;10.042;2023-05-10T08:57:10;22.60;35.70
4386;DHT22;2207;53.540;10.042;2023-05-10T08:59:37;23.00;35.40
4386;DHT22;2207;53.540;10.042;2023-05-10T09:02:05;23.30;35.20
4386;DHT22;2207;53.540;10.042;2023-05-10T09:04:32;23.60;34.90
4386;DHT22;2207;53.540;10.042;2023-05-10T09:07:01;23.70;34.70
4386;DHT22;2207;53.540;10.042;2023-05-10T09:09:28;23.80;34.70
4386;DHT22;2207;53.540;10.042;2023-05-10T09:11:55;23.80;34.60
4386;DHT22;2207;53.540;10.042;2023-05-10T09:14:23;23.50;35.00
4386;DHT22;2207;53.540;10.042;2023-05-10T09:16:50;23.30;35.60
4386;DHT22;2207;53.540;10.042;2023-05-10T09:19:19;22.90;35.80
4386;DHT22;2207;53.540;10.042;2023-05-10T09:21:46;22.50;36.10
4386;DHT22;2207;53.540;10.042;2023-05-10T09:24:14;22.20;36.70
4386;DHT22;2207;53.540;10.042;2023-05-10T09:26:46;21.90;37.20
4386;DHT22;2207;53.540;10.042;2023-05-10T09:29:13;21.80;37.60
4386;DHT22;2207;53.540;10.042;2023-05-10T09:31:44;21.70;37.60
4386;DHT22;2207;53.540;10.042;2023-05-10T09:34:15;21.70;37.80
4386;DHT22;2207;53.540;10.042;2023-05-10T09:36:51;21.60;37.90
4386;DHT22;2207;53.540;10.042;2023-05-10T09:39:19;21.30;38.50
4386;DHT22;2207;53.540;10.042;2023-05-10T09:41:46;21.00;39.10
4386;DHT22;2207;53.540;10.042;2023-05-10T09:44:17;20.70;39.70
4386;DHT22;2207;53.540;10.042;2023-05-10T09:46:49;20.40;40.40
4386;DHT22;2207;53.540;10.042;2023-05-10T09:49:16;20.20;41.10
4386;DHT22;2207;53.540;10.042;2023-05-10T09:51:43;19.90;41.70
4386;DHT22;2207;53.540;10.042;2023-05-10T09:54:11;19.60;42.80
4386;DHT22;2207;53.540;10.042;2023-05-10T09:56:39;19.50;43.90
4386;DHT22;2207;53.540;10.042;2023-05-10T09:59:08;19.40;44.60
4386;DHT22;2207;53.540;10.042;2023-05-10T10:01:36;19.20;45.30
4386;DHT22;2207;53.540;10.042;2023-05-10T10:04:04;18.90;46.20
4386;DHT22;2207;53.540;10.042;2023-05-10T10:06:35;18.50;47.40
4386;DHT22;2207;53.540;10.042;2023-05-10T10:09:04;18.10;47.60
4386;DHT22;2207;53.540;10.042;2023-05-10T10:11:31;17.80;48.20
4386;DHT22;2207;53.540;10.042;2023-05-10T10:13:59;17.60;49.10
4386;DHT22;2207;53.540;10.042;2023-05-10T10:16:27;17.40;49.70
4386;DHT22;2207;53.540;10.042;2023-05-10T10:18:55;17.30;50.20
4386;DHT22;2207;53.540;10.042;2023-05-10T10:21:22;17.20;50.50
4386;DHT22;2207;53.540;10.042;2023-05-10T10:23:49;17.00;51.00
4386;DHT22;2207;53.540;10.042;2023-05-10T10:26:17;16.90;51.80
4386;DHT22;2207;53.540;10.042;2023-05-10T10:28:49;17.00;52.20
4386;DHT22;2207;53.540;10.042;2023-05-10T10:31:26;17.20;52.60
4386;DHT22;2207;53.540;10.042;2023-05-10T10:34:00;17.30;52.60
4386;DHT22;2207;53.540;10.042;2023-05-10T10:36:28;17.20;52.80
4386;DHT22;2207;53.540;10.042;2023-05-10T10:38:59;17.00;52.90
4386;DHT22;2207;53.540;10.042;2023-05-10T10:41:32;17.00;53.60
4386;DHT22;2207;53.540;10.042;2023-05-10T10:44:24;17.00;54.00
4386;DHT22;2207;53.540;10.042;2023-05-10T10:47:07;17.10;54.10
4386;DHT22;2207;53.540;10.042;2023-05-10T10:49:44;17.00;54.10
4386;DHT22;2207;53.540;10.042;2023-05-10T10:52:25;17.00;54.40
4386;DHT22;2207;53.540;10.042;2023-05-10T10:54:59;17.00;54.80
4386;DHT22;2207;53.540;10.042;2023-05-10T10:57:27;17.10;54.80
4386;DHT22;2207;53.540;10.042;2023-05-10T11:00:20;17.10;54.70
4386;DHT22;2207;53.540;10.042;2023-05-10T11:02:50;17.10;55.20
4386;DHT22;2207;53.540;10.042;2023-05-10T11:05:44;17.20;55.20
4386;DHT22;2207;53.540;10.042;2023-05-10T11:08:14;17.40;55.60
4386;DHT22;2207;53.540;10.042;2023-05-10T11:10:53;17.80;55.40
4386;DHT22;2207;53.540;10.042;2023-05-10T11:13:30;18.10;55.10
4386;DHT22;2207;53.540;10.042;2023-05-10T11:15:58;18.40;54.90
4386;DHT22;2207;53.540;10.042;2023-05-10T11:18:30;18.50;54.50
4386;DHT22;2207;53.540;10.042;2023-05-10T11:20:58;18.60;54.40
4386;DHT22;2207;53.540;10.042;2023-05-10T11:23:30;18.60;54.50
4386;DHT22;2207;53.540;10.042;2023-05-10T11:25:58;18.80;54.60
4386;DHT22;2207;53.540;10.042;2023-05-10T11:28:26;19.10;54.70
4386;DHT22;2207;53.540;10.042;2023-05-10T11:30:53;19.60;54.30
4386;DHT22;2207;53.540;10.042;2023-05-10T11:33:20;19.80;53.50
4386;DHT22;2207;53.540;10.042;2023-05-10T11:35:48;19.80;53.40
4386;DHT22;2207;53.540;10.042;2023-05-10T11:38:15;19.80;53.40
4386;DHT22;2207;53.540;10.042;2023-05-10T11:40:43;19.90;53.30
4386;DHT22;2207;53.540;10.042;2023-05-10T11:43:10;19.80;53.20
4386;DHT22;2207;53.540;10.042;2023-05-10T11:45:37;19.60;53.20
4386;DHT22;2207;53.540;10.042;2023-05-10T11:48:04;19.30;54.20
4386;DHT22;2207;53.540;10.042;2023-05-10T11:50:31;18.90;54.30
4386;DHT22;2207;53.540;10.042;2023-05-10T11:52:59;18.60;54.70
4386;DHT22;2207;53.540;10.042;2023-05-10T11:55:26;18.20;55.00
4386;DHT22;2207;53.540;10.042;2023-05-10T11:57:55;17.90;55.80
4386;DHT22;2207;53.540;10.042;2023-05-10T12:00:26;17.60;56.00
4386;DHT22;2207;53.540;10.042;2023-05-10T12:02:53;17.40;56.50
4386;DHT22;2207;53.540;10.042;2023-05-10T12:05:20;17.30;57.10
4386;DHT22;2207;53.540;10.042;2023-05-10T12:07:47;17.40;57.60
4386;DHT22;2207;53.540;10.042;2023-05-10T12:10:15;17.60;57.70
4386;DHT22;2207;53.540;10.042;2023-05-10T12:12:44;17.80;57.70
4386;DHT22;2207;53.540;10.042;2023-05-10T12:15:17;18.20;57.70
4386;DHT22;2207;53.540;10.042;2023-05-10T12:17:44;18.70;57.10
4386;DHT22;2207;53.540;10.042;2023-05-10T12:20:16;19.10;57.20
4386;DHT22;2207;53.540;10.042;2023-05-10T12:22:47;19.50;56.60
4386;DHT22;2207;53.540;10.042;2023-05-10T12:25:15;19.80;56.20
4386;DHT22;2207;53.540;10.042;2023-05-10T12:27:48;20.00;55.80
4386;DHT22;2207;53.540;10.042;2023-05-10T12:30:19;20.20;55.60
4386;DHT22;2207;53.540;10.042;2023-05-10T12:32:47;20.50;55.50
4386;DHT22;2207;53.540;10.042;2023-05-10T12:35:13;20.60;55.00
4386;DHT22;2207;53.540;10.042;2023-05-10T12:37:42;20.90;54.80
4386;DHT22;2207;53.540;10.042;2023-05-10T12:40:10;21.00;54.60
4386;DHT22;2207;53.540;10.042;2023-05-10T12:42:42;21.10;54.20
4386;DHT22;2207;53.540;10.042;2023-05-10T12:45:11;21.00;54.00
4386;DHT22;2207;53.540;10.042;2023-05-10T12:47:38;20.70;54.50
4386;DHT22;2207;53.540;10.042;2023-05-10T12:50:05;20.80;55.10
4386;DHT22;2207;53.540;10.042;2023-05-10T12:52:32;21.10;54.90
4386;DHT22;2207;53.540;10.042;2023-05-10T12:54:59;21.50;54.30
4386;DHT22;2207;53.540;10.042;2023-05-10T12:57:26;21.80;54.10
4386;DHT22;2207;53.540;10.042;2023-05-10T12:59:55;22.00;53.60
4386;DHT22;2207;53.540;10.042;2023-05-10T13:02:22;22.20;53.30
4386;DHT22;2207;53.540;10.042;2023-05-10T13:04:49;22.40;53.10
4386;DHT22;2207;53.540;10.042;2023-05-10T13:07:16;22.50;52.60
4386;DHT22;2207;53.540;10.042;2023-05-10T13:09:42;22.50;52.50
4386;DHT22;2207;53.540;10.042;2023-05-10T13:12:09;22.40;52.50
4386;DHT22;2207;53.540;10.042;2023-05-10T13:14:36;22.40;52.50
4386;DHT22;2207;53.540;10.042;2023-05-10T13:17:04;22.40;52.80
4386;DHT22;2207;53.540;10.042;2023-05-10T13:19:30;22.50;52.80
4386;DHT22;2207;53.540;10.042;2023-05-10T13:21:57;22.60;52.40
4386;DHT22;2207;53.540;10.042;2023-05-10T13:24:24;22.60;52.30
4386;DHT22;2207;53.540;10.042;2023-05-10T13:26:51;22.70;52.30
4386;DHT22;2207;53.540;10.042;2023-05-10T13:29:17;22.90;52.30
4386;DHT22;2207;53.540;10.042;2023-05-10T13:31:44;23.10;52.00
4386;DHT22;2207;53.540;10.042;2023-05-10T13:34:13;23.30;51.40
4386;DHT22;2207;53.540;10.042;2023-05-10T13:36:40;23.40;51.00
4386;DHT22;2207;53.540;10.042;2023-05-10T13:39:06;23.40;50.90
4386;DHT22;2207;53.540;10.042;2023-05-10T13:41:34;23.30;50.70
4386;DHT22;2207;53.540;10.042;2023-05-10T13:44:00;23.00;50.90
4386;DHT22;2207;53.540;10.042;2023-05-10T13:46:29;22.80;51.20
4386;DHT22;2207;53.540;10.042;2023-05-10T13:48:56;22.60;51.50
4386;DHT22;2207;53.540;10.042;2023-05-10T13:51:25;22.60;51.70
4386;DHT22;2207;53.540;10.042;2023-05-10T13:53:51;22.60;51.70
4386;DHT22;2207;53.540;10.042;2023-05-10T13:56:18;22.50;51.90
4386;DHT22;2207;53.540;10.042;2023-05-10T13:58:45;22.40;52.00
4386;DHT22;2207;53.540;10.042;2023-05-10T14:01:11;22.20;51.80
4386;DHT22;2207;53.540;10.042;2023-05-10T14:03:38;22.10;52.30
4386;DHT22;2207;53.540;10.042;2023-05-10T14:06:05;21.90;52.50
4386;DHT22;2207;53.540;10.042;2023-05-10T14:08:34;21.70;52.80
4386;DHT22;2207;53.540;10.042;2023-05-10T14:11:01;21.70;53.00
4386;DHT22;2207;53.540;10.042;2023-05-10T14:13:27;21.80;52.80
4386;DHT22;2207;53.540;10.042;2023-05-10T14:15:54;21.80;52.60
4386;DHT22;2207;53.540;10.042;2023-05-10T14:18:21;21.70;52.70
4386;DHT22;2207;53.540;10.042;2023-05-10T14:20:48;21.70;52.80
4386;DHT22;2207;53.540;10.042;2023-05-10T14:23:15;21.70;52.90
4386;DHT22;2207;53.540;10.042;2023-05-10T14:25:43;21.90;52.90
4386;DHT22;2207;53.540;10.042;2023-05-10T14:28:10;22.00;52.40
4386;DHT22;2207;53.540;10.042;2023-05-10T14:30:37;22.10;52.40
4386;DHT22;2207;53.540;10.042;2023-05-10T14:33:04;22.10;52.30
4386;DHT22;2207;53.540;10.042;2023-05-10T14:35:31;22.10;52.10
4386;DHT22;2207;53.540;10.042;2023-05-10T14:37:57;22.00;52.30
4386;DHT22;2207;53.540;10.042;2023-05-10T14:40:24;22.00;52.30
4386;DHT22;2207;53.540;10.042;2023-05-10T14:42:59;21.90;52.60
4386;DHT22;2207;53.540;10.042;2023-05-10T14:45:26;21.60;52.60
4386;DHT22;2207;53.540;10.042;2023-05-10T14:47:53;21.30;53.10
4386;DHT22;2207;53.540;10.042;2023-05-10T14:50:20;21.00;53.50
4386;DHT22;2207;53.540;10.042;2023-05-10T14:52:46;20.80;53.90
4386;DHT22;2207;53.540;10.042;2023-05-10T14:55:13;20.50;54.10
4386;DHT22;2207;53.540;10.042;2023-05-10T14:57:40;20.30;54.70
4386;DHT22;2207;53.540;10.042;2023-05-10T15:00:09;20.20;55.10
4386;DHT22;2207;53.540;10.042;2023-05-10T15:02:36;20.30;55.10
4386;DHT22;2207;53.540;10.042;2023-05-10T15:05:04;20.40;55.10
4386;DHT22;2207;53.540;10.042;2023-05-10T15:07:31;20.40;55.10
4386;DHT22;2207;53.540;10.042;2023-05-10T15:09:58;20.60;55.00
4386;DHT22;2207;53.540;10.042;2023-05-10T15:12:24;20.80;54.70
4386;DHT22;2207;53.540;10.042;2023-05-10T15:14:51;20.80;54.50
4386;DHT22;2207;53.540;10.042;2023-05-10T15:17:19;20.80;54.50
4386;DHT22;2207;53.540;10.042;2023-05-10T15:19:46;20.80;54.60
4386;DHT22;2207;53.540;10.042;2023-05-10T15:22:12;20.80;54.70
4386;DHT22;2207;53.540;10.042;2023-05-10T15:24:39;20.70;54.70
4386;DHT22;2207;53.540;10.042;2023-05-10T15:27:06;20.60;54.70
4386;DHT22;2207;53.540;10.042;2023-05-10T15:29:33;20.50;54.90
4386;DHT22;2207;53.540;10.042;2023-05-10T15:32:01;20.30;55.20
4386;DHT22;2207;53.540;10.042;2023-05-10T15:34:30;20.30;55.40
4386;DHT22;2207;53.540;10.042;2023-05-10T15:36:56;20.50;55.20
4386;DHT22;2207;53.540;10.042;2023-05-10T15:39:23;20.50;55.00
4386;DHT22;2207;53.540;10.042;2023-05-10T15:41:51;20.50;55.00
4386;DHT22;2207;53.540;10.042;2023-05-10T15:44:17;20.50;55.10
4386;DHT22;2207;53.540;10.042;2023-05-10T15:46:44;20.50;55.10
4386;DHT22;2207;53.540;10.042;2023-05-10T15:49:11;20.50;55.30
4386;DHT22;2207;53.540;10.042;2023-05-10T15:51:39;20.30;55.10
4386;DHT22;2207;53.540;10.042;2023-05-10T15:54:06;20.20;55.50
4386;DHT22;2207;53.540;10.042;2023-05-10T15:56:33;20.00;55.60
4386;DHT22;2207;53.540;10.042;2023-05-10T15:59:00;19.80;55.70
4386;DHT22;2207;53.540;10.042;2023-05-10T16:01:26;19.60;56.00